createdAt,value
2023-04-28T00:01:16.784Z,98780.13
2023-04-28T00:03:43.632Z,98773.25
2023-04-28T00:06:11.469Z,98776.72
2023-04-28T00:08:38.096Z,98771.59
2023-04-28T00:11:09.049Z,98778.72
2023-04-28T00:13:35.836Z,98774.50
2023-04-28T00:16:02.439Z,98788.53
2023-04-28T00:18:29.240Z,98772.16
2023-04-28T00:20:56.453Z,98777.66
2023-04-28T00:23:23.089Z,98771.00
2023-04-28T00:25:53.218Z,98765.06
2023-04-28T00:28:32.918Z,98764.38
2023-04-28T00:31:01.132Z,98764.44
2023-04-28T00:33:27.743Z,98758.53
2023-04-28T00:36:01.430Z,98760.34
2023-04-28T00:38:28.382Z,98756.91
2023-04-28T00:40:55.038Z,98752.63
2023-04-28T00:43:21.787Z,98760.56
2023-04-28T00:45:52.064Z,98749.44
2023-04-28T00:48:19.553Z,98749.53
2023-04-28T00:50:47.566Z,98752.19
2023-04-28T00:53:14.308Z,98753.19
2023-04-28T00:55:41.185Z,98756.91
2023-04-28T00:58:08.319Z,98764.97
2023-04-28T01:00:35.133Z,98757.38
2023-04-28T01:03:01.846Z,98761.03
2023-04-28T01:05:29.443Z,98763.63
2023-04-28T01:07:56.227Z,98762.75
2023-04-28T01:10:22.911Z,98757.56
2023-04-28T01:12:49.504Z,98759.09
2023-04-28T01:15:16.974Z,98758.88
2023-04-28T01:17:44.088Z,98758.72
2023-04-28T01:20:11.228Z,98759.41
2023-04-28T01:22:37.774Z,98748.94
2023-04-28T01:25:04.607Z,98766.06
2023-04-28T01:27:31.199Z,98770.38
2023-04-28T01:29:58.524Z,98773.81
2023-04-28T01:32:25.158Z,98773.00
2023-04-28T01:34:51.970Z,98773.91
2023-04-28T01:37:18.549Z,98766.09
2023-04-28T01:39:45.089Z,98770.41
2023-04-28T01:42:11.917Z,98767.69
2023-04-28T01:44:38.497Z,98766.72
2023-04-28T01:47:05.228Z,98761.53
2023-04-28T01:49:32.249Z,98761.56
2023-04-28T01:51:58.804Z,98769.38
2023-04-28T01:54:26.089Z,98765.13
2023-04-28T01:56:52.692Z,98766.91
2023-04-28T01:59:20.489Z,98756.59
2023-04-28T02:01:47.106Z,98749.69
2023-04-28T02:04:13.893Z,98746.25
2023-04-28T02:06:40.653Z,98753.19
2023-04-28T02:09:07.291Z,98754.00
2023-04-28T02:11:33.944Z,98755.66
2023-04-28T02:14:00.496Z,98752.16
2023-04-28T02:16:47.044Z,98764.34
2023-04-28T02:19:13.654Z,98752.19
2023-04-28T02:21:41.610Z,98742.72
2023-04-28T02:24:08.992Z,98748.78
2023-04-28T02:26:35.605Z,98750.47
2023-04-28T02:29:04.340Z,98757.34
2023-04-28T02:31:31.655Z,98760.88
2023-04-28T02:33:58.282Z,98769.56
2023-04-28T02:36:24.995Z,98772.25
2023-04-28T02:38:52.104Z,98778.38
2023-04-28T02:41:18.763Z,98774.03
2023-04-28T02:43:45.477Z,98768.78
2023-04-28T02:46:12.064Z,98768.00
2023-04-28T02:48:38.660Z,98782.66
2023-04-28T02:51:05.610Z,98785.16
2023-04-28T02:53:32.204Z,98782.59
2023-04-28T02:55:59.523Z,98782.59
2023-04-28T02:58:26.862Z,98774.06
2023-04-28T03:00:53.456Z,98772.38
2023-04-28T03:03:20.221Z,98770.56
2023-04-28T03:05:46.911Z,98767.00
2023-04-28T03:08:13.480Z,98764.34
2023-04-28T03:10:40.147Z,98781.69
2023-04-28T03:13:07.163Z,98769.56
2023-04-28T03:15:33.761Z,98787.88
2023-04-28T03:18:01.255Z,98786.13
2023-04-28T03:20:27.919Z,98782.66
2023-04-28T03:22:54.464Z,98786.25
2023-04-28T03:25:21.024Z,98787.88
2023-04-28T03:27:47.619Z,98785.38
2023-04-28T03:30:14.262Z,98801.84
2023-04-28T03:32:40.928Z,98796.72
2023-04-28T03:35:07.666Z,98789.88
2023-04-28T03:37:34.310Z,98797.66
2023-04-28T03:40:00.876Z,98803.72
2023-04-28T03:42:27.552Z,98800.22
2023-04-28T03:44:54.066Z,98801.91
2023-04-28T03:47:20.588Z,98801.84
2023-04-28T03:49:47.244Z,98816.56
2023-04-28T03:52:13.752Z,98815.03
2023-04-28T03:54:41.473Z,98810.75
2023-04-28T03:57:08.103Z,98811.66
2023-04-28T03:59:34.708Z,98810.66
2023-04-28T04:02:01.323Z,98809.72
2023-04-28T04:04:28.313Z,98815.59
2023-04-28T04:06:55.097Z,98825.97
2023-04-28T04:09:21.853Z,98822.41
2023-04-28T04:11:48.370Z,98820.72
2023-04-28T04:14:15.174Z,98820.63
2023-04-28T04:16:41.925Z,98812.94
2023-04-28T04:19:08.559Z,98807.69
2023-04-28T04:21:35.196Z,98806.72
2023-04-28T04:24:01.777Z,98805.75
2023-04-28T04:26:28.302Z,98824.72
2023-04-28T04:28:54.894Z,98830.59
2023-04-28T04:31:22.584Z,98837.44
2023-04-28T04:33:49.644Z,98830.63
2023-04-28T04:36:16.390Z,98836.78
2023-04-28T04:38:42.923Z,98839.41
2023-04-28T04:41:09.465Z,98834.28
2023-04-28T04:43:36.109Z,98837.06
2023-04-28T04:46:04.103Z,98836.06
2023-04-28T04:48:30.929Z,98835.16
2023-04-28T04:50:57.495Z,98846.22
2023-04-28T04:53:24.252Z,98856.56
2023-04-28T04:55:50.987Z,98849.47
2023-04-28T04:58:17.955Z,98844.28
2023-04-28T05:00:44.640Z,98846.78
2023-04-28T05:03:11.867Z,98837.22
2023-04-28T05:05:38.629Z,98847.44
2023-04-28T05:08:05.964Z,98847.38
2023-04-28T05:10:32.949Z,98849.09
2023-04-28T05:12:59.604Z,98838.78
2023-04-28T05:15:26.296Z,98852.63
2023-04-28T05:17:52.982Z,98853.38
2023-04-28T05:20:19.713Z,98854.97
2023-04-28T05:22:46.307Z,98851.28
2023-04-28T05:25:12.865Z,98847.56
2023-04-28T05:27:40.946Z,98850.63
2023-04-28T05:30:08.369Z,98847.63
2023-04-28T05:32:35.740Z,98847.47
2023-04-28T05:35:02.698Z,98856.00
2023-04-28T05:37:29.851Z,98860.25
2023-04-28T05:39:56.568Z,98847.31
2023-04-28T05:42:23.154Z,98852.50
2023-04-28T05:44:49.732Z,98846.25
2023-04-28T05:47:16.327Z,98846.81
2023-04-28T05:49:42.886Z,98853.63
2023-04-28T05:52:09.444Z,98858.84
2023-04-28T05:54:36.158Z,98858.91
2023-04-28T05:57:02.826Z,98853.75
2023-04-28T05:59:30.688Z,98853.72
2023-04-28T06:01:57.357Z,98854.44
2023-04-28T06:04:25.587Z,98855.06
2023-04-28T06:06:52.761Z,98860.63
2023-04-28T06:09:19.376Z,98853.53
2023-04-28T06:11:45.960Z,98845.41
2023-04-28T06:14:12.597Z,98841.47
2023-04-28T06:16:41.447Z,98846.50
2023-04-28T06:19:08.102Z,98848.19
2023-04-28T06:21:34.739Z,98844.38
2023-04-28T06:24:02.063Z,98844.06
2023-04-28T06:26:29.251Z,98853.66
2023-04-28T06:28:55.905Z,98845.59
2023-04-28T06:31:22.827Z,98848.84
2023-04-28T06:33:49.456Z,98850.91
2023-04-28T06:36:17.897Z,98848.38
2023-04-28T06:38:45.132Z,98847.03
2023-04-28T06:41:11.992Z,98855.56
2023-04-28T06:43:38.661Z,98845.97
2023-04-28T06:46:05.422Z,98847.78
2023-04-28T06:48:32.075Z,98846.84
2023-04-28T06:50:58.607Z,98848.53
2023-04-28T06:53:25.170Z,98849.50
2023-04-28T06:55:51.739Z,98847.78
2023-04-28T06:58:18.395Z,98848.84
2023-04-28T07:00:45.100Z,98850.44
2023-04-28T07:03:12.013Z,98850.38
2023-04-28T07:05:38.771Z,98849.28
2023-04-28T07:08:06.842Z,98857.91
2023-04-28T07:10:33.369Z,98853.78
2023-04-28T07:12:59.963Z,98853.91
2023-04-28T07:15:26.796Z,98859.94
2023-04-28T07:17:53.612Z,98863.44
2023-04-28T07:20:20.428Z,98848.69
2023-04-28T07:22:46.973Z,98858.03
2023-04-28T07:25:13.637Z,98856.00
2023-04-28T07:27:40.285Z,98858.66
2023-04-28T07:30:25.216Z,98864.75
2023-04-28T07:32:53.228Z,98878.78
2023-04-28T07:35:19.886Z,98867.16
2023-04-28T07:37:46.493Z,98870.13
2023-04-28T07:40:13.221Z,98880.06
2023-04-28T07:42:39.777Z,98866.34
2023-04-28T07:45:06.782Z,98866.44
2023-04-28T07:47:33.480Z,98855.75
2023-04-28T07:50:03.557Z,98863.88
2023-04-28T07:52:30.482Z,98861.34
2023-04-28T07:54:57.328Z,98864.94
2023-04-28T07:57:23.899Z,98868.66
2023-04-28T07:59:50.715Z,98871.03
2023-04-28T08:02:17.393Z,98866.56
2023-04-28T08:04:44.170Z,98871.16
2023-04-28T08:07:10.965Z,98865.19
2023-04-28T08:09:37.615Z,98872.38
2023-04-28T08:12:04.183Z,98871.78
2023-04-28T08:14:30.739Z,98868.78
2023-04-28T08:16:57.646Z,98865.69
2023-04-28T08:19:24.340Z,98865.06
2023-04-28T08:21:51.081Z,98870.38
2023-04-28T08:24:17.842Z,98870.97
2023-04-28T08:26:44.728Z,98881.25
2023-04-28T08:29:11.609Z,98880.03
2023-04-28T08:31:38.700Z,98869.03
2023-04-28T08:34:05.305Z,98877.03
2023-04-28T08:36:33.315Z,98874.47
2023-04-28T08:39:03.150Z,98885.00
2023-04-28T08:41:32.332Z,98871.22
2023-04-28T08:43:58.882Z,98878.28
2023-04-28T08:46:27.453Z,98882.63
2023-04-28T08:48:58.419Z,98884.13
2023-04-28T08:51:33.433Z,98887.63
2023-04-28T08:56:35.949Z,98883.78
2023-04-28T08:59:04.224Z,98885.03
2023-04-28T09:01:31.472Z,98887.19
2023-04-28T09:04:00.990Z,98883.00
2023-04-28T09:06:28.271Z,98883.00
2023-04-28T09:08:57.184Z,98886.53
2023-04-28T09:11:23.764Z,98877.53
2023-04-28T09:13:50.359Z,98870.94
2023-04-28T09:16:17.254Z,98879.97
2023-04-28T09:18:56.025Z,98879.59
2023-04-28T09:21:22.608Z,98880.09
2023-04-28T09:23:50.675Z,98884.47
2023-04-28T09:26:17.563Z,98882.66
2023-04-28T09:28:44.366Z,98881.56
2023-04-28T09:31:25.238Z,98872.63
2023-04-28T09:33:58.366Z,98871.38
2023-04-28T09:36:29.709Z,98875.41
2023-04-28T09:39:00.227Z,98871.63
2023-04-28T09:41:42.917Z,98866.41
2023-04-28T09:44:17.656Z,98868.00
2023-04-28T09:46:45.298Z,98881.22
2023-04-28T09:49:15.498Z,98878.63
2023-04-28T09:51:42.648Z,98870.13
2023-04-28T09:54:09.459Z,98875.50
2023-04-28T09:56:41.979Z,98882.56
2023-04-28T09:59:08.849Z,98875.78
2023-04-28T10:01:40.631Z,98873.16
2023-04-28T10:04:08.148Z,98877.22
2023-04-28T10:06:38.139Z,98873.28
2023-04-28T10:09:05.628Z,98873.88
2023-04-28T10:11:33.933Z,98875.28
2023-04-28T10:14:00.606Z,98880.59
2023-04-28T10:16:30.358Z,98888.59
2023-04-28T10:18:57.706Z,98885.28
2023-04-28T10:21:25.324Z,98884.06
2023-04-28T10:24:16.173Z,98884.50
2023-04-28T10:27:01.541Z,98884.72
2023-04-28T10:29:28.825Z,98885.06
2023-04-28T10:32:14.213Z,98879.84
2023-04-28T10:34:40.794Z,98885.69
2023-04-28T10:37:07.416Z,98880.69
2023-04-28T10:39:34.148Z,98871.44
2023-04-28T10:42:00.758Z,98885.91
2023-04-28T10:44:30.157Z,98881.25
2023-04-28T10:47:02.207Z,98886.19
2023-04-28T10:49:47.227Z,98887.50
2023-04-28T10:52:32.643Z,98898.31
2023-04-28T10:55:22.114Z,98899.63
2023-04-28T10:58:09.031Z,98907.56
2023-04-28T11:00:35.690Z,98905.69
2023-04-28T11:03:02.420Z,98902.25
2023-04-28T11:05:31.968Z,98902.66
2023-04-28T11:08:16.948Z,98900.53
2023-04-28T11:11:02.363Z,98912.41
2023-04-28T11:13:34.300Z,98914.56
2023-04-28T11:16:04.462Z,98920.31
2023-04-28T11:18:54.932Z,98924.00
2023-04-28T11:21:23.431Z,98909.44
2023-04-28T11:23:50.419Z,98921.59
2023-04-28T11:26:17.270Z,98917.16
2023-04-28T11:28:51.066Z,98919.34
2023-04-28T11:31:20.683Z,98919.81
2023-04-28T11:33:49.567Z,98913.38
2023-04-28T11:36:23.215Z,98906.91
2023-04-28T11:38:49.751Z,98909.97
2023-04-28T11:41:16.529Z,98908.06
2023-04-28T11:43:47.283Z,98913.94
2023-04-28T11:46:18.283Z,98908.44
2023-04-28T11:48:45.449Z,98914.50
2023-04-28T11:51:28.239Z,98907.69
2023-04-28T11:53:55.052Z,98902.56
2023-04-28T11:56:21.666Z,98895.44
2023-04-28T11:59:00.666Z,98899.56
2023-04-28T12:01:28.301Z,98895.03
2023-04-28T12:03:55.977Z,98892.22
2023-04-28T12:06:22.693Z,98897.38
2023-04-28T12:08:49.360Z,98893.13
2023-04-28T12:11:20.116Z,98893.88
2023-04-28T12:14:06.225Z,98885.94
2023-04-28T12:16:44.269Z,98880.38
2023-04-28T12:19:11.506Z,98885.47
2023-04-28T12:21:39.586Z,98885.28
2023-04-28T12:24:19.926Z,98885.19
2023-04-28T12:26:47.433Z,98890.69
2023-04-28T12:29:32.655Z,98896.44
2023-04-28T12:31:59.455Z,98897.19
2023-04-28T12:34:27.351Z,98898.69
2023-04-28T12:36:54.027Z,98909.56
2023-04-28T12:39:23.038Z,98920.56
2023-04-28T12:41:49.640Z,98907.13
2023-04-28T12:44:16.205Z,98905.59
2023-04-28T12:46:42.879Z,98904.03
2023-04-28T12:49:09.673Z,98912.03
2023-04-28T12:51:38.925Z,98912.19
2023-04-28T12:54:05.618Z,98905.38
2023-04-28T12:56:32.185Z,98899.59
2023-04-28T12:58:58.768Z,98910.13
2023-04-28T13:01:25.364Z,98904.28
2023-04-28T13:03:53.724Z,98915.00
2023-04-28T13:06:20.602Z,98899.50
2023-04-28T13:08:47.183Z,98899.22
2023-04-28T13:11:22.697Z,98899.06
2023-04-28T13:13:49.789Z,98902.31
2023-04-28T13:16:16.400Z,98919.03
2023-04-28T13:18:43.327Z,98905.06
2023-04-28T13:21:09.904Z,98909.53
2023-04-28T13:23:36.630Z,98909.38
2023-04-28T13:26:04.394Z,98919.72
2023-04-28T13:28:31.026Z,98916.22
2023-04-28T13:30:57.629Z,98914.53
2023-04-28T13:33:30.957Z,98930.63
2023-04-28T13:35:58.499Z,98940.81
2023-04-28T13:38:25.890Z,98933.59
2023-04-28T13:40:53.084Z,98947.63
2023-04-28T13:43:19.693Z,98933.94
2023-04-28T13:45:46.536Z,98946.16
2023-04-28T13:48:13.373Z,98936.00
2023-04-28T13:50:39.979Z,98942.59
2023-04-28T13:53:06.601Z,98955.78
2023-04-28T13:55:33.229Z,98967.50
2023-04-28T13:58:04.558Z,98965.22
2023-04-28T14:00:32.659Z,98963.91
2023-04-28T14:03:00.316Z,98963.06
2023-04-28T14:05:29.741Z,98970.97
2023-04-28T14:07:56.925Z,98981.47
2023-04-28T14:10:23.449Z,98973.06
2023-04-28T14:12:50.508Z,98974.09
2023-04-28T14:15:18.074Z,98975.97
2023-04-28T14:17:44.765Z,98973.41
2023-04-28T14:20:11.736Z,98984.56
2023-04-28T14:22:38.906Z,98973.22
2023-04-28T14:25:05.656Z,98972.31
2023-04-28T14:27:33.485Z,98975.84
2023-04-28T14:30:00.856Z,98981.81
2023-04-28T14:32:27.889Z,98980.03
2023-04-28T14:34:54.511Z,98977.28
2023-04-28T14:37:21.293Z,98983.47
2023-04-28T14:39:48.620Z,98978.34
2023-04-28T14:42:15.293Z,98986.22
2023-04-28T14:44:41.862Z,98973.25
2023-04-28T14:47:08.446Z,98988.94
2023-04-28T14:49:35.139Z,98990.88
2023-04-28T14:52:01.830Z,98987.63
2023-04-28T14:54:28.685Z,98984.00
2023-04-28T14:56:55.213Z,98979.88
2023-04-28T14:59:21.846Z,98992.13
2023-04-28T15:01:50.588Z,98987.84
2023-04-28T15:04:17.433Z,98986.22
2023-04-28T15:06:44.090Z,98981.97
2023-04-28T15:09:10.821Z,98993.16
2023-04-28T15:11:37.364Z,98996.56
2023-04-28T15:14:03.979Z,98993.16
2023-04-28T15:16:30.594Z,98993.22
2023-04-28T15:18:57.180Z,99005.44
2023-04-28T15:21:23.941Z,99013.22
2023-04-28T15:23:50.490Z,99007.16
2023-04-28T15:26:17.367Z,99000.28
2023-04-28T15:28:43.987Z,99006.28
2023-04-28T15:31:10.587Z,99003.59
2023-04-28T15:33:37.439Z,99003.69
2023-04-28T15:36:05.158Z,99024.50
2023-04-28T15:38:31.758Z,99019.38
2023-04-28T15:40:58.379Z,99009.84
2023-04-28T15:43:25.374Z,99002.16
2023-04-28T15:45:52.527Z,99001.22
2023-04-28T15:48:19.166Z,99014.28
2023-04-28T15:50:46.675Z,99001.34
2023-04-28T15:53:13.342Z,99002.22
2023-04-28T15:55:40.042Z,99006.59
2023-04-28T15:58:08.128Z,99000.56
2023-04-28T16:00:35.120Z,99008.34
2023-04-28T16:03:01.762Z,99022.19
2023-04-28T16:05:28.492Z,99032.47
2023-04-28T16:07:55.139Z,99034.47
2023-04-28T16:10:22.138Z,99028.47
2023-04-28T16:12:48.768Z,99017.31
2023-04-28T16:15:15.391Z,99010.38
2023-04-28T16:17:42.303Z,99007.78
2023-04-28T16:20:09.907Z,99013.88
2023-04-28T16:22:36.792Z,99011.28
2023-04-28T16:25:06.721Z,99029.38
2023-04-28T16:27:36.633Z,99033.72
2023-04-28T16:30:04.975Z,99023.38
2023-04-28T16:32:33.674Z,99023.41
2023-04-28T16:35:00.611Z,99025.91
2023-04-28T16:37:27.224Z,99032.91
2023-04-28T16:39:53.807Z,99025.16
2023-04-28T16:42:23.338Z,99030.34
2023-04-28T16:44:52.472Z,99032.09
2023-04-28T16:47:19.631Z,99036.31
2023-04-28T16:49:46.280Z,99031.19
2023-04-28T16:52:13.026Z,99037.28
2023-04-28T16:54:39.750Z,99037.41
2023-04-28T16:57:06.434Z,99037.56
2023-04-28T16:59:34.016Z,99041.00
2023-04-28T17:02:05.838Z,99061.72
2023-04-28T17:04:32.934Z,99048.81
2023-04-28T17:06:59.811Z,99042.84
2023-04-28T17:09:27.543Z,99059.22
2023-04-28T17:11:55.036Z,99062.75
2023-04-28T17:14:21.719Z,99051.50
2023-04-28T17:16:48.287Z,99051.59
2023-04-28T17:19:14.954Z,99070.59
2023-04-28T17:21:41.523Z,99054.19
2023-04-28T17:24:08.943Z,99045.59
2023-04-28T17:26:36.426Z,99041.31
2023-04-28T17:29:03.667Z,99061.16
2023-04-28T17:31:30.411Z,99071.44
2023-04-28T17:33:57.760Z,99066.28
2023-04-28T17:36:26.031Z,99068.91
2023-04-28T17:38:53.296Z,99070.66
2023-04-28T17:41:19.953Z,99056.88
2023-04-28T17:43:46.683Z,99062.91
2023-04-28T17:46:14.672Z,99084.50
2023-04-28T17:48:42.512Z,99070.72
2023-04-28T17:51:09.383Z,99086.22
2023-04-28T17:53:37.442Z,99085.38
2023-04-28T17:56:04.368Z,99100.88
2023-04-28T17:58:32.720Z,99098.31
2023-04-28T18:01:00.101Z,99094.09
2023-04-28T18:03:27.181Z,99082.03
2023-04-28T18:05:53.823Z,99094.09
2023-04-28T18:08:20.489Z,99089.81
2023-04-28T18:10:47.105Z,99084.69
2023-04-28T18:13:13.676Z,99076.03
2023-04-28T18:15:40.393Z,99082.97
2023-04-28T18:18:06.940Z,99079.53
2023-04-28T18:20:33.517Z,99082.97
2023-04-28T18:23:00.181Z,99089.84
2023-04-28T18:25:26.882Z,99107.09
2023-04-28T18:27:54.028Z,99098.53
2023-04-28T18:30:20.710Z,99096.84
2023-04-28T18:32:48.865Z,99081.38
2023-04-28T18:35:16.060Z,99079.69
2023-04-28T18:37:46.055Z,99080.56
2023-04-28T18:40:13.402Z,99084.00
2023-04-28T18:42:39.995Z,99078.00
2023-04-28T18:45:08.063Z,99086.59
2023-04-28T18:47:35.192Z,99079.72
2023-04-28T18:50:02.642Z,99078.88
2023-04-28T18:52:30.198Z,99088.31
2023-04-28T18:54:56.870Z,99096.06
2023-04-28T18:57:23.482Z,99081.47
2023-04-28T18:59:50.207Z,99092.63
2023-04-28T19:02:17.859Z,99094.34
2023-04-28T19:04:45.362Z,99096.09
2023-04-28T19:07:11.981Z,99096.09
2023-04-28T19:09:38.541Z,99105.50
2023-04-28T19:12:05.244Z,99111.53
2023-04-28T19:14:31.997Z,99115.84
2023-04-28T19:16:58.661Z,99111.53
2023-04-28T19:19:25.275Z,99103.81
2023-04-28T19:21:52.611Z,99108.13
2023-04-28T19:24:19.196Z,99113.25
2023-04-28T19:26:45.839Z,99117.53
2023-04-28T19:29:14.984Z,99135.53
2023-04-28T19:31:41.525Z,99120.88
2023-04-28T19:34:08.134Z,99113.97
2023-04-28T19:36:35.629Z,99103.69
2023-04-28T19:39:02.164Z,99095.97
2023-04-28T19:41:29.160Z,99095.06
2023-04-28T19:43:55.743Z,99096.78
2023-04-28T19:46:22.744Z,99096.78
2023-04-28T19:48:49.325Z,99103.63
2023-04-28T19:51:16.979Z,99100.19
2023-04-28T19:53:46.410Z,99075.31
2023-04-28T19:56:13.901Z,99083.91
2023-04-28T19:58:41.072Z,99084.75
2023-04-28T20:01:07.827Z,99088.22
2023-04-28T20:03:35.022Z,99095.03
2023-04-28T20:06:01.665Z,99095.06
2023-04-28T20:08:28.436Z,99091.59
2023-04-28T20:10:55.101Z,99091.66
2023-04-28T20:13:21.642Z,99089.03
2023-04-28T20:15:48.343Z,99080.47
2023-04-28T20:18:14.947Z,99091.63
2023-04-28T20:20:41.544Z,99098.47
2023-04-28T20:23:08.190Z,99103.63
2023-04-28T20:25:37.912Z,99107.06
2023-04-28T20:28:05.354Z,99106.22
2023-04-28T20:30:32.091Z,99101.94
2023-04-28T20:32:58.724Z,99089.91
2023-04-28T20:35:25.363Z,99101.03
2023-04-28T20:37:53.053Z,99095.00
2023-04-28T20:40:19.670Z,99093.28
2023-04-28T20:42:47.098Z,99086.41
2023-04-28T20:45:13.698Z,99084.72
2023-04-28T20:47:40.629Z,99091.56
2023-04-28T20:50:10.850Z,99090.72
2023-04-28T20:52:38.006Z,99092.44
2023-04-28T20:55:04.970Z,99083.88
2023-04-28T20:57:31.528Z,99103.56
2023-04-28T20:59:58.080Z,99100.09
2023-04-28T21:02:24.821Z,99095.84
2023-04-28T21:04:52.218Z,99094.97
2023-04-28T21:07:18.787Z,99100.13
2023-04-28T21:09:45.447Z,99089.81
2023-04-28T21:12:12.000Z,99098.34
2023-04-28T21:14:38.888Z,99092.34
2023-04-28T21:17:05.759Z,99081.22
2023-04-28T21:19:32.537Z,99100.09
2023-04-28T21:21:59.188Z,99103.56
2023-04-28T21:24:26.166Z,99105.28
2023-04-28T21:26:52.756Z,99084.69
2023-04-28T21:29:19.385Z,99098.38
2023-04-28T21:31:46.043Z,99106.06
2023-04-28T21:34:12.687Z,99087.16
2023-04-28T21:36:40.014Z,99095.75
2023-04-28T21:39:07.727Z,99106.00
2023-04-28T21:41:34.306Z,99097.44
2023-04-28T21:44:00.909Z,99088.84
2023-04-28T21:46:27.924Z,99098.22
2023-04-28T21:48:55.242Z,99089.59
2023-04-28T21:51:21.846Z,99087.91
2023-04-28T21:53:48.782Z,99091.28
2023-04-28T21:56:17.218Z,99102.47
2023-04-28T21:58:43.803Z,99085.28
2023-04-28T22:01:12.080Z,99082.69
2023-04-28T22:03:38.967Z,99065.53
2023-04-28T22:06:05.805Z,99067.22
2023-04-28T22:08:33.784Z,99070.63
2023-04-28T22:11:00.905Z,99060.28
2023-04-28T22:13:27.712Z,99074.84
2023-04-28T22:15:56.182Z,99065.41
2023-04-28T22:18:22.812Z,99058.53
2023-04-28T22:20:50.124Z,99058.53
2023-04-28T22:23:16.735Z,99067.94
2023-04-28T22:25:43.540Z,99063.66
2023-04-28T22:28:10.083Z,99061.13
2023-04-28T22:30:36.809Z,99056.88
2023-04-28T22:33:03.924Z,99050.81
2023-04-28T22:35:30.607Z,99052.53
2023-04-28T22:37:57.318Z,99052.50
2023-04-28T22:40:23.857Z,99053.25
2023-04-28T22:42:50.394Z,99048.19
2023-04-28T22:45:16.999Z,99050.69
2023-04-28T22:47:43.591Z,99050.69
2023-04-28T22:50:10.955Z,99053.19
2023-04-28T22:52:37.624Z,99064.31
2023-04-28T22:55:04.781Z,99062.53
2023-04-28T22:57:31.347Z,99058.22
2023-04-28T22:59:57.967Z,99059.03
2023-04-28T23:02:25.447Z,99063.22
2023-04-28T23:04:52.179Z,99060.63
2023-04-28T23:07:18.895Z,99044.31
2023-04-28T23:09:45.490Z,99054.50
2023-04-28T23:12:12.246Z,99061.28
2023-04-28T23:14:38.889Z,99069.78
2023-04-28T23:17:05.639Z,99086.09
2023-04-28T23:19:32.293Z,99083.50
2023-04-28T23:21:59.025Z,99097.13
2023-04-28T23:24:27.191Z,99097.09
2023-04-28T23:26:53.840Z,99103.91
2023-04-28T23:29:20.423Z,99084.16
2023-04-28T23:31:52.289Z,99094.44
2023-04-28T23:34:19.276Z,99093.53
2023-04-28T23:36:45.873Z,99095.19
2023-04-28T23:39:12.452Z,99092.66
2023-04-28T23:41:39.157Z,99061.03
2023-04-28T23:44:05.729Z,99079.78
2023-04-28T23:46:32.266Z,99069.50
2023-04-28T23:48:58.910Z,99074.69
2023-04-28T23:51:25.879Z,99083.16
2023-04-28T23:53:52.408Z,99083.97
2023-04-28T23:56:18.944Z,99084.66
2023-04-28T23:58:45.478Z,99077.81
